Time;durP1;ratioP1;P1;durP2;ratioP2;P2;SDS_P1;SDS_P2;PMS_P1;PMS_P2;Temp;Humidity;BMP_temperature;BMP_pressure;BME280_temperature;BME280_humidity;BME280_pressure;Samples;Min_cycle;Max_cycle;Signal;HPM_P1;HPM_P2
2022/01/31 00:01:06;;;;;;;14.13;5.22;;;179.50;1433.60;;;;;;5104399;28;20046;-60
2022/01/31 00:03:34;;;;;;;16.45;4.55;;;179.50;1433.60;;;;;;5103667;28;20381;-61
2022/01/31 00:06:03;;;;;;;16.88;5.43;;;179.50;1433.60;;;;;;5101971;28;20036;-61
2022/01/31 00:08:29;;;;;;;15.73;5.32;;;179.50;1433.60;;;;;;5103163;28;20030;-60
2022/01/31 00:10:55;;;;;;;20.50;5.13;;;179.50;1433.60;;;;;;5113246;28;20362;-64
2022/01/31 00:13:26;;;;;;;16.40;5.75;;;179.50;1433.60;;;;;;5114047;28;20069;-65
2022/01/31 00:15:55;;;;;;;19.98;6.30;;;179.40;1459.20;;;;;;5114403;28;20012;-60
2022/01/31 00:18:20;;;;;;;22.90;6.15;;;179.40;1433.60;;;;;;5113724;28;20046;-61
2022/01/31 00:20:46;;;;;;;23.98;7.60;;;179.40;1433.60;;;;;;5113904;28;20020;-62
2022/01/31 00:23:12;;;;;;;21.65;7.45;;;179.40;1433.60;;;;;;5113822;28;20098;-65
2022/01/31 00:25:38;;;;;;;27.73;6.70;;;179.30;1433.60;;;;;;5113848;28;20022;-63
2022/01/31 00:28:04;;;;;;;17.35;5.60;;;179.30;1433.60;;;;;;5113762;28;20016;-61
2022/01/31 00:30:30;;;;;;;16.80;4.97;;;179.30;1433.60;;;;;;5117090;28;20031;-61
2022/01/31 00:32:55;;;;;;;18.80;4.40;;;179.30;1433.60;;;;;;5117802;28;20147;-60
2022/01/31 00:35:21;;;;;;;10.88;3.70;;;179.30;1459.20;;;;;;5099619;28;20373;-61
2022/01/31 00:37:47;;;;;;;17.10;4.95;;;179.30;1433.60;;;;;;5117734;28;20047;-61
2022/01/31 00:40:13;;;;;;;14.02;4.50;;;179.30;1459.20;;;;;;5117872;28;20089;-62
2022/01/31 00:42:39;;;;;;;13.63;4.63;;;179.20;1459.20;;;;;;5117953;28;20035;-60
2022/01/31 00:45:12;;;;;;;13.95;4.28;;;179.20;1459.20;;;;;;5117832;28;20023;-64
2022/01/31 00:47:41;;;;;;;17.85;5.53;;;179.20;1484.80;;;;;;5117604;28;20023;-60
2022/01/31 00:50:09;;;;;;;14.07;5.00;;;179.20;1459.20;;;;;;5117696;28;20467;-61
2022/01/31 00:52:37;;;;;;;13.70;4.25;;;154.50;1484.80;;;;;;5117574;28;20528;-66
2022/01/31 00:55:05;;;;;;;16.85;4.38;;;179.20;1484.80;;;;;;5117501;28;20035;-65
2022/01/31 00:57:30;;;;;;;10.35;3.85;;;154.50;1484.80;;;;;;5117384;28;20040;-61
2022/01/31 00:59:56;;;;;;;10.48;2.85;;;154.50;1484.80;;;;;;5117657;28;20513;-65
2022/01/31 01:02:23;;;;;;;8.45;2.78;;;154.50;1484.80;;;;;;5117336;28;20036;-65
2022/01/31 01:04:50;;;;;;;8.75;2.95;;;154.50;1484.80;;;;;;5117106;28;20055;-61
2022/01/31 01:07:15;;;;;;;10.73;2.60;;;154.50;1459.20;;;;;;5117260;28;20028;-66
2022/01/31 01:09:44;;;;;;;10.73;2.67;;;154.40;1484.80;;;;;;5117267;28;20027;-60
2022/01/31 01:12:11;;;;;;;10.73;3.20;;;154.40;1484.80;;;;;;5117449;28;20110;-60
2022/01/31 01:14:36;;;;;;;12.88;2.88;;;154.40;1484.80;;;;;;5117923;28;20047;-64
2022/01/31 01:17:02;;;;;;;13.05;4.18;;;154.40;1484.80;;;;;;5116871;28;20074;-64
2022/01/31 01:19:28;;;;;;;9.55;3.58;;;154.40;1484.80;;;;;;5117344;28;20027;-60
2022/01/31 01:21:54;;;;;;;12.85;3.63;;;154.30;1484.80;;;;;;5117021;28;20023;-60
2022/01/31 01:24:20;;;;;;;9.75;2.83;;;154.30;1484.80;;;;;;5117270;28;20028;-60
2022/01/31 01:26:47;;;;;;;13.77;3.17;;;154.30;1484.80;;;;;;5117216;28;20497;-63
2022/01/31 01:29:13;;;;;;;9.60;3.13;;;154.30;1484.80;;;;;;5117004;28;20050;-60
2022/01/31 01:31:39;;;;;;;12.57;3.60;;;154.30;1459.20;;;;;;5116896;28;20465;-60
2022/01/31 01:34:05;;;;;;;11.52;3.60;;;154.40;1459.20;;;;;;5116983;28;20099;-60
2022/01/31 01:36:32;;;;;;;16.67;3.88;;;154.30;1459.20;;;;;;5116957;28;20512;-61
2022/01/31 01:38:58;;;;;;;14.18;3.72;;;154.40;1459.20;;;;;;5116769;28;20045;-63
2022/01/31 01:41:24;;;;;;;11.23;3.20;;;154.40;1459.20;;;;;;5116091;28;20031;-61
2022/01/31 01:43:50;;;;;;;13.25;3.50;;;154.30;1459.20;;;;;;5116704;28;20457;-60
2022/01/31 01:46:16;;;;;;;10.18;2.83;;;154.30;1459.20;;;;;;5116614;28;20085;-60
2022/01/31 01:48:42;;;;;;;13.40;3.17;;;154.30;1459.20;;;;;;5116494;28;20032;-64
2022/01/31 01:51:08;;;;;;;6.38;2.72;;;154.30;1459.20;;;;;;5116550;28;20052;-61
2022/01/31 01:53:33;;;;;;;10.43;3.70;;;154.20;1484.80;;;;;;5116611;28;20050;-60
2022/01/31 01:55:59;;;;;;;11.45;3.85;;;154.20;1484.80;;;;;;5116326;28;20487;-61
2022/01/31 01:58:29;;;;;;;7.72;3.00;;;154.20;1484.80;;;;;;5116350;28;20036;-62
2022/01/31 02:01:02;;;;;;;9.75;3.80;;;154.10;1510.40;;;;;;5116279;28;20035;-61
2022/01/31 02:03:29;;;;;;;6.28;2.13;;;154.20;1510.40;;;;;;5116418;28;20080;-60
2022/01/31 02:05:56;;;;;;;7.43;2.63;;;154.20;1484.80;;;;;;5116314;28;20095;-64
2022/01/31 02:08:22;;;;;;;8.98;2.75;;;154.20;1484.80;;;;;;5116397;28;20099;-62
2022/01/31 02:10:48;;;;;;;7.95;2.70;;;154.20;1484.80;;;;;;5116308;28;20031;-61
2022/01/31 02:13:17;;;;;;;15.05;3.67;;;154.20;1459.20;;;;;;5116212;28;20046;-62
2022/01/31 02:15:51;;;;;;;11.85;3.60;;;154.20;1459.20;;;;;;5116014;28;20059;-61
2022/01/31 02:18:18;;;;;;;11.65;3.67;;;154.20;1433.60;;;;;;5115750;28;20062;-62
2022/01/31 02:20:44;;;;;;;10.50;3.80;;;154.20;1433.60;;;;;;5116100;28;20016;-59
2022/01/31 02:23:12;;;;;;;15.95;4.63;;;154.20;1433.60;;;;;;5116098;28;20358;-60
2022/01/31 02:25:58;;;;;;;17.13;4.65;;;154.20;1433.60;;;;;;5115836;28;20016;-60
2022/01/31 02:28:24;;;;;;;;;;;154.10;1433.60;;;;;;5116384;28;20047;-62
2022/01/31 02:30:50;;;;;;;22.40;6.75;;;154.10;1433.60;;;;;;5115730;28;19907;-63
2022/01/31 02:33:18;;;;;;;20.25;6.38;;;154.10;1433.60;;;;;;5115810;28;20028;-61
2022/01/31 02:35:58;;;;;;;25.30;7.78;;;154.00;1433.60;;;;;;5115470;28;20089;-64
2022/01/31 02:38:24;;;;;;;26.27;7.53;;;154.00;1433.60;;;;;;5115693;28;20042;-64
2022/01/31 02:40:50;;;;;;;25.70;8.25;;;154.00;1459.20;;;;;;5115482;28;20047;-60
2022/01/31 02:43:27;;;;;;;27.45;7.93;;;153.90;1459.20;;;;;;5115550;28;20031;-63
2022/01/31 02:45:53;;;;;;;27.40;8.60;;;153.90;1459.20;;;;;;5115392;28;20028;-60
2022/01/31 02:48:23;;;;;;;29.63;8.82;;;153.90;1459.20;;;;;;5115514;28;20035;-60
2022/01/31 02:50:49;;;;;;;32.65;8.75;;;153.90;1459.20;;;;;;5115421;28;20035;-60
2022/01/31 02:53:31;;;;;;;38.92;8.70;;;153.90;1459.20;;;;;;5114800;28;20115;-65
2022/01/31 02:55:59;;;;;;;27.92;7.10;;;153.90;1433.60;;;;;;5115205;28;20035;-59
2022/01/31 02:58:27;;;;;;;28.48;6.22;;;153.80;1433.60;;;;;;5114714;28;20040;-63
2022/01/31 03:00:55;;;;;;;14.82;5.50;;;153.90;1433.60;;;;;;5114963;28;20077;-64
2022/01/31 03:03:21;;;;;;;19.40;4.60;;;154.00;1408.00;;;;;;5115137;28;20022;-60
2022/01/31 03:05:47;;;;;;;18.83;4.80;;;153.90;1408.00;;;;;;5115515;28;20024;-60
2022/01/31 03:08:13;;;;;;;18.08;5.10;;;153.90;1408.00;;;;;;5115020;28;20023;-60
2022/01/31 03:10:38;;;;;;;22.02;5.57;;;153.90;1408.00;;;;;;5115573;28;20381;-59
2022/01/31 03:13:05;;;;;;;20.67;6.00;;;153.80;1408.00;;;;;;5114868;28;20023;-59
2022/01/31 03:15:31;;;;;;;17.60;5.22;;;153.90;1433.60;;;;;;5114821;28;20023;-59
2022/01/31 03:17:58;;;;;;;16.70;4.60;;;153.90;1433.60;;;;;;5114569;28;20046;-60
2022/01/31 03:20:24;;;;;;;16.52;4.63;;;153.80;1408.00;;;;;;5114860;28;20073;-65
2022/01/31 03:22:50;;;;;;;18.52;4.68;;;153.90;1433.60;;;;;;5114771;28;20413;-61
2022/01/31 03:25:17;;;;;;;15.88;4.68;;;153.80;1408.00;;;;;;5114582;28;20042;-60
2022/01/31 03:27:43;;;;;;;18.40;4.43;;;153.80;1408.00;;;;;;5114814;28;20068;-60
2022/01/31 03:30:14;;;;;;;13.93;4.30;;;153.80;1408.00;;;;;;5114937;28;20027;-63
2022/01/31 03:32:39;;;;;;;22.23;5.40;;;153.80;1408.00;;;;;;5114427;28;20146;-62
2022/01/31 03:35:07;;;;;;;15.85;3.78;;;153.80;1408.00;;;;;;5114608;28;20047;-64
2022/01/31 03:37:33;;;;;;;13.48;4.38;;;153.80;1408.00;;;;;;5114539;28;20039;-62
2022/01/31 03:39:58;;;;;;;18.27;4.18;;;153.80;1408.00;;;;;;5114612;28;20034;-59
2022/01/31 03:42:24;;;;;;;17.02;3.88;;;153.80;1408.00;;;;;;5114800;28;20035;-61
2022/01/31 03:44:51;;;;;;;16.55;4.97;;;153.80;1408.00;;;;;;5114473;28;20027;-61
2022/01/31 03:47:20;;;;;;;19.48;5.45;;;153.80;1408.00;;;;;;5113979;28;20066;-61
2022/01/31 03:49:46;;;;;;;19.38;4.50;;;153.80;1408.00;;;;;;5114750;28;20111;-61
2022/01/31 03:52:12;;;;;;;19.17;3.75;;;153.70;1433.60;;;;;;5114290;28;20051;-59
2022/01/31 03:54:37;;;;;;;20.63;3.83;;;153.60;1433.60;;;;;;5114430;28;20031;-60
2022/01/31 03:57:03;;;;;;;15.70;2.80;;;153.60;1433.60;;;;;;5114335;28;20485;-59
2022/01/31 03:59:29;;;;;;;14.15;3.10;;;153.60;1459.20;;;;;;5114727;28;20027;-60
2022/01/31 04:01:54;;;;;;;15.18;3.15;;;153.60;1459.20;;;;;;5114080;28;20035;-59
2022/01/31 04:04:20;;;;;;;16.73;2.55;;;128.90;1484.80;;;;;;5113839;28;20028;-60
2022/01/31 04:06:46;;;;;;;13.80;3.45;;;128.80;1484.80;;;;;;5114176;28;20578;-59
2022/01/31 04:09:12;;;;;;;25.42;4.65;;;128.80;1484.80;;;;;;5113805;28;20518;-60
2022/01/31 04:11:37;;;;;;;27.05;3.63;;;128.70;1484.80;;;;;;5113967;28;20107;-57
2022/01/31 04:14:03;;;;;;;21.95;4.05;;;128.80;1484.80;;;;;;5113890;28;20027;-60
2022/01/31 04:16:29;;;;;;;18.65;3.63;;;128.80;1510.40;;;;;;5113830;28;20084;-57
2022/01/31 04:18:54;;;;;;;18.23;3.85;;;128.70;1484.80;;;;;;5114206;28;20036;-59
2022/01/31 04:21:21;;;;;;;22.98;3.97;;;128.70;1484.80;;;;;;5114195;28;20377;-58
2022/01/31 04:23:50;;;;;;;45.65;10.05;;;128.80;1484.80;;;;;;5114041;28;20099;-57
2022/01/31 04:26:15;;;;;;;22.17;3.97;;;128.90;1612.80;;;;;;5114179;28;20035;-57
2022/01/31 04:28:47;;;;;;;25.63;4.03;;;153.60;1510.40;;;;;;5114051;28;20127;-58
2022/01/31 04:33:50;;;;;;;20.40;5.23;;;153.60;1459.20;;;;;;5113845;28;20027;-57
2022/01/31 04:36:17;;;;;;;14.52;2.90;;;153.60;1433.60;;;;;;5113954;28;20027;-58
2022/01/31 04:38:47;;;;;;;16.42;2.72;;;153.60;1433.60;;;;;;5114176;28;20042;-57
2022/01/31 04:41:13;;;;;;;13.23;2.67;;;153.60;1433.60;;;;;;5113609;28;20024;-59
2022/01/31 04:43:39;;;;;;;9.60;2.85;;;153.60;1459.20;;;;;;5113771;28;20039;-57
2022/01/31 04:46:07;;;;;;;15.35;4.53;;;153.60;1433.60;;;;;;5113829;28;20358;-60
2022/01/31 04:48:34;;;;;;;18.42;3.97;;;128.80;1459.20;;;;;;5113455;28;20370;-61
2022/01/31 04:51:00;;;;;;;18.95;4.95;;;128.80;1459.20;;;;;;5113669;28;20528;-58
2022/01/31 04:53:26;;;;;;;21.50;5.82;;;128.80;1484.80;;;;;;5113748;28;20122;-60
2022/01/31 04:55:52;;;;;;;20.98;5.95;;;128.70;1484.80;;;;;;5113715;28;20030;-61
2022/01/31 04:58:21;;;;;;;18.13;5.82;;;128.80;1484.80;;;;;;5113402;28;20065;-58
2022/01/31 05:00:47;;;;;;;23.20;7.43;;;128.70;1484.80;;;;;;5113684;28;20032;-60
2022/01/31 05:03:15;;;;;;;17.63;5.93;;;128.70;1484.80;;;;;;5113492;28;20077;-59
2022/01/31 05:05:43;;;;;;;22.33;5.70;;;128.70;1484.80;;;;;;5113736;28;20023;-59
2022/01/31 05:08:09;;;;;;;16.48;4.55;;;128.70;1484.80;;;;;;5113521;28;20119;-58
2022/01/31 05:10:35;;;;;;;14.43;4.55;;;128.70;1484.80;;;;;;5113688;28;20369;-59
2022/01/31 05:13:02;;;;;;;22.05;4.95;;;128.60;1484.80;;;;;;5113631;28;20322;-59
2022/01/31 05:15:27;;;;;;;16.17;6.78;;;128.60;1484.80;;;;;;5113652;28;20084;-59
2022/01/31 05:17:53;;;;;;;17.77;6.43;;;128.60;1484.80;;;;;;5116864;28;20481;-58
2022/01/31 05:20:19;;;;;;;18.88;6.10;;;128.60;1484.80;;;;;;5117220;28;20024;-59
2022/01/31 05:22:45;;;;;;;21.52;6.85;;;128.70;1484.80;;;;;;5117538;28;20318;-58
2022/01/31 05:25:11;;;;;;;17.98;5.03;;;128.60;1484.80;;;;;;5116904;28;20365;-58
2022/01/31 05:27:37;;;;;;;16.15;5.03;;;128.50;1484.80;;;;;;5116938;28;20372;-58
2022/01/31 05:30:04;;;;;;;16.15;5.55;;;128.40;1536.00;;;;;;5116913;28;20111;-59
2022/01/31 05:32:30;;;;;;;19.45;5.93;;;128.30;1510.40;;;;;;5116403;28;20151;-60
2022/01/31 05:34:56;;;;;;;21.45;6.93;;;128.20;1536.00;;;;;;5116842;28;20052;-58
2022/01/31 05:37:22;;;;;;;23.55;8.07;;;128.20;1536.00;;;;;;5116623;28;20039;-58
2022/01/31 05:39:47;;;;;;;25.20;7.78;;;128.20;1536.00;;;;;;5116823;28;20024;-57
2022/01/31 05:42:14;;;;;;;28.77;13.55;;;128.20;1536.00;;;;;;5116959;28;20069;-60
2022/01/31 05:44:39;;;;;;;41.63;20.65;;;128.20;1510.40;;;;;;5116623;28;20073;-60
2022/01/31 05:47:05;;;;;;;28.60;13.15;;;128.20;1536.00;;;;;;5116717;28;20027;-60
2022/01/31 05:49:32;;;;;;;16.55;7.32;;;128.30;1510.40;;;;;;5116879;28;20024;-60
2022/01/31 05:52:04;;;;;;;20.95;8.35;;;128.20;1536.00;;;;;;5116634;28;20533;-60
2022/01/31 05:54:30;;;;;;;18.83;7.78;;;128.30;1536.00;;;;;;5116621;28;20119;-60
2022/01/31 05:56:56;;;;;;;15.63;6.70;;;128.30;1510.40;;;;;;5116190;28;20068;-60
2022/01/31 05:59:22;;;;;;;14.50;5.15;;;128.30;1510.40;;;;;;5116041;28;20036;-57
2022/01/31 06:01:48;;;;;;;14.88;5.07;;;128.40;1510.40;;;;;;5115949;28;20024;-60
2022/01/31 06:04:14;;;;;;;12.50;5.20;;;128.40;1510.40;;;;;;5116388;28;20085;-60
2022/01/31 06:06:39;;;;;;;13.02;5.75;;;128.50;1510.40;;;;;;5116342;28;20027;-58
2022/01/31 06:09:06;;;;;;;19.77;8.13;;;128.50;1510.40;;;;;;5116612;28;20156;-58
2022/01/31 06:11:34;;;;;;;20.27;8.20;;;128.40;1536.00;;;;;;5116412;28;20020;-60
2022/01/31 06:14:10;;;;;;;14.63;7.22;;;128.50;1510.40;;;;;;5116033;28;20030;-59
2022/01/31 06:16:36;;;;;;;22.70;9.25;;;128.50;1510.40;;;;;;5115765;28;20011;-60
2022/01/31 06:19:03;;;;;;;25.52;10.55;;;128.40;1536.00;;;;;;5116037;28;20032;-60
2022/01/31 06:21:28;;;;;;;32.78;10.68;;;128.40;1510.40;;;;;;5116018;28;20020;-58
2022/01/31 06:23:54;;;;;;;28.08;11.40;;;128.40;1536.00;;;;;;5115838;28;20488;-58
2022/01/31 06:26:21;;;;;;;23.30;11.10;;;128.30;1536.00;;;;;;5115991;28;20020;-60
2022/01/31 06:28:50;;;;;;;23.70;11.23;;;128.30;1536.00;;;;;;5115281;28;20030;-59
2022/01/31 06:31:16;;;;;;;45.50;20.45;;;128.40;1536.00;;;;;;5115639;28;20060;-61
2022/01/31 06:33:42;;;;;;;54.72;19.42;;;128.40;1536.00;;;;;;5115525;28;20020;-58
2022/01/31 06:36:08;;;;;;;60.47;19.52;;;128.40;1536.00;;;;;;5115649;28;20073;-58
2022/01/31 06:38:35;;;;;;;103.20;20.65;;;128.50;1536.00;;;;;;5115690;28;20039;-59
2022/01/31 06:41:02;;;;;;;82.72;18.45;;;128.50;1561.60;;;;;;5115771;28;20058;-58
2022/01/31 06:43:28;;;;;;;93.40;20.10;;;128.50;1536.00;;;;;;5115633;28;20032;-59
2022/01/31 06:45:54;;;;;;;91.68;23.20;;;128.50;1536.00;;;;;;5115631;28;20028;-59
2022/01/31 06:48:20;;;;;;;131.65;25.02;;;128.50;1561.60;;;;;;5115302;28;20028;-59
2022/01/31 06:50:46;;;;;;;79.47;23.45;;;128.50;1536.00;;;;;;5115477;28;20035;-58
2022/01/31 06:53:12;;;;;;;65.30;17.83;;;128.60;1561.60;;;;;;5115860;28;20035;-57
2022/01/31 06:55:39;;;;;;;38.60;16.63;;;128.60;1536.00;;;;;;5115463;28;20028;-60
2022/01/31 06:58:05;;;;;;;78.25;34.42;;;128.50;1536.00;;;;;;5115384;28;20043;-60
2022/01/31 07:00:31;;;;;;;74.38;28.63;;;128.50;1561.60;;;;;;5115353;28;20031;-59
2022/01/31 07:03:00;;;;;;;122.25;32.17;;;128.60;1536.00;;;;;;5115102;28;20052;-60
2022/01/31 07:05:26;;;;;;;125.22;29.42;;;128.60;1587.20;;;;;;5115175;28;20098;-63
2022/01/31 07:07:52;;;;;;;85.63;20.92;;;128.60;1561.60;;;;;;5115074;28;20492;-62
2022/01/31 07:10:17;;;;;;;81.20;23.52;;;128.60;1536.00;;;;;;5115050;28;20016;-63
2022/01/31 07:12:51;;;;;;;78.93;31.45;;;128.60;1561.60;;;;;;5096414;28;20035;-59
2022/01/31 07:15:17;;;;;;;66.80;28.98;;;128.60;1536.00;;;;;;5114872;28;20486;-60
2022/01/31 07:17:44;;;;;;;53.65;23.83;;;128.60;1587.20;;;;;;5114753;28;20038;-60
2022/01/31 07:20:20;;;;;;;30.38;14.20;;;128.60;1561.60;;;;;;5114176;28;20456;-59
2022/01/31 07:22:52;;;;;;;30.30;12.65;;;128.60;1561.60;;;;;;5104526;28;20028;-59
2022/01/31 07:25:34;;;;;;;29.20;12.95;;;128.70;1561.60;;;;;;5100921;28;20028;-59
2022/01/31 07:28:04;;;;;;;35.83;16.92;;;128.80;1536.00;;;;;;5105306;28;20030;-63
2022/01/31 07:30:30;;;;;;;34.55;15.52;;;128.80;1561.60;;;;;;5093295;28;20016;-60
2022/01/31 07:32:56;;;;;;;94.22;22.15;;;128.80;1536.00;;;;;;5103798;28;20047;-60
2022/01/31 07:35:22;;;;;;;70.88;21.63;;;128.90;1536.00;;;;;;5114473;28;20019;-60
2022/01/31 07:37:48;;;;;;;90.03;26.75;;;128.80;1536.00;;;;;;5113724;28;20059;-60
2022/01/31 07:40:14;;;;;;;70.15;19.63;;;128.90;1536.00;;;;;;5114133;28;20354;-62
2022/01/31 07:42:40;;;;;;;43.45;16.15;;;128.80;1536.00;;;;;;5114373;28;20450;-65
2022/01/31 07:45:06;;;;;;;40.10;19.33;;;128.80;1740.80;;;;;;5114240;28;20031;-65
2022/01/31 07:47:31;;;;;;;46.88;20.00;;;154.20;1996.80;;;;;;5114154;28;20031;-66
2022/01/31 07:49:57;;;;;;;55.95;23.48;;;179.50;1868.80;;;;;;5114483;28;20028;-63
2022/01/31 07:52:24;;;;;;;52.63;26.83;;;179.70;1612.80;;;;;;5114240;28;20480;-62
2022/01/31 07:54:49;;;;;;;121.28;51.85;;;179.60;1536.00;;;;;;5107932;28;20097;-61
2022/01/31 07:57:17;;;;;;;127.68;55.17;;;179.40;1510.40;;;;;;5103766;28;20465;-62
2022/01/31 07:59:43;;;;;;;135.15;60.42;;;179.30;1536.00;;;;;;5104405;28;20097;-61
2022/01/31 08:02:08;;;;;;;115.63;54.40;;;179.20;1510.40;;;;;;5102316;28;20422;-62
2022/01/31 08:04:34;;;;;;;199.45;89.03;;;179.20;1510.40;;;;;;5104071;28;20030;-61
2022/01/31 08:07:00;;;;;;;226.50;106.05;;;179.20;1510.40;;;;;;5103810;28;20024;-62
2022/01/31 08:09:27;;;;;;;203.65;92.43;;;179.20;1510.40;;;;;;5102517;28;20406;-61
2022/01/31 08:11:52;;;;;;;375.88;161.07;;;179.20;1510.40;;;;;;5104115;28;20027;-61
2022/01/31 08:14:19;;;;;;;263.90;114.22;;;179.20;1510.40;;;;;;5103926;28;20024;-63
2022/01/31 08:16:45;;;;;;;203.40;89.25;;;179.20;1510.40;;;;;;5102304;28;20104;-62
2022/01/31 08:19:11;;;;;;;133.52;63.58;;;179.20;1510.40;;;;;;5107797;28;20110;-60
2022/01/31 08:21:37;;;;;;;100.05;45.53;;;179.20;1510.40;;;;;;5100279;28;20076;-59
2022/01/31 08:24:04;;;;;;;93.68;41.92;;;179.30;1536.00;;;;;;5103989;28;20031;-62
2022/01/31 08:26:30;;;;;;;88.10;37.55;;;179.30;1510.40;;;;;;5113053;28;20081;-60
2022/01/31 08:29:00;;;;;;;77.50;37.78;;;179.40;1510.40;;;;;;5103036;28;20012;-60
2022/01/31 08:36:34;;;;;;;55.72;24.60;;;179.50;1510.40;;;;;;5099042;28;20028;-60
2022/01/31 08:39:22;;;;;;;51.72;22.02;;;179.50;1484.80;;;;;;5084491;28;20474;-59
2022/01/31 08:41:51;;;;;;;42.60;22.30;;;179.60;1484.80;;;;;;5106184;28;20068;-61
2022/01/31 08:44:20;;;;;;;62.38;27.13;;;179.70;1459.20;;;;;;5106361;28;20020;-61
2022/01/31 08:46:47;;;;;;;75.63;28.48;;;179.70;1484.80;;;;;;5099303;28;20069;-61
2022/01/31 08:49:14;;;;;;;71.03;28.48;;;179.80;1484.80;;;;;;5102707;28;20027;-62
2022/01/31 08:51:41;;;;;;;70.65;27.27;;;179.80;1459.20;;;;;;5106762;28;20020;-61
2022/01/31 08:54:07;;;;;;;82.82;34.63;;;179.90;1484.80;;;;;;5103051;28;20055;-61
2022/01/31 08:56:40;;;;;;;71.43;33.13;;;180.00;1459.20;;;;;;5097149;28;20070;-60
2022/01/31 08:59:07;;;;;;;70.72;27.63;;;180.00;1459.20;;;;;;5102471;28;20024;-61
2022/01/31 09:01:34;;;;;;;49.80;22.10;;;204.80;1459.20;;;;;;5106950;28;20047;-61
2022/01/31 09:04:04;;;;;;;46.17;22.42;;;204.80;1433.60;;;;;;5108300;28;20036;-60
2022/01/31 09:06:32;;;;;;;45.75;20.15;;;204.80;1459.20;;;;;;5105612;28;20031;-60
2022/01/31 09:08:58;;;;;;;53.70;21.42;;;204.90;1459.20;;;;;;5105302;28;20103;-61
2022/01/31 09:11:25;;;;;;;51.72;20.33;;;204.90;1459.20;;;;;;5107024;28;20410;-60
2022/01/31 09:13:52;;;;;;;45.58;17.80;;;205.00;1433.60;;;;;;5106972;28;20024;-60
2022/01/31 09:16:18;;;;;;;46.55;18.20;;;205.00;1433.60;;;;;;5085987;28;20032;-61
2022/01/31 09:18:44;;;;;;;41.30;19.55;;;205.00;1433.60;;;;;;5096142;28;20504;-60
2022/01/31 09:21:11;;;;;;;61.25;25.60;;;205.10;1433.60;;;;;;5096559;28;20024;-61
2022/01/31 09:23:37;;;;;;;68.70;27.48;;;205.10;1433.60;;;;;;5102185;28;20044;-61
2022/01/31 09:26:04;;;;;;;67.60;27.83;;;205.00;1433.60;;;;;;5101736;28;20024;-60
2022/01/31 09:28:30;;;;;;;70.13;28.65;;;205.10;1433.60;;;;;;5096122;28;20465;-60
2022/01/31 09:30:57;;;;;;;70.40;24.77;;;205.10;1433.60;;;;;;5096315;28;20024;-61
2022/01/31 09:33:25;;;;;;;64.18;25.08;;;205.10;1433.60;;;;;;5096257;28;20431;-62
2022/01/31 09:35:51;;;;;;;64.95;24.48;;;205.20;1408.00;;;;;;5096518;28;20477;-60
2022/01/31 09:38:18;;;;;;;62.38;28.42;;;205.20;1433.60;;;;;;5096426;28;20028;-61
2022/01/31 09:40:45;;;;;;;74.40;32.95;;;205.20;1433.60;;;;;;5096612;28;20027;-61
2022/01/31 09:51:11;;;;;;;67.32;28.65;;;205.30;1433.60;;;;;;5096416;28;20032;-61
2022/01/31 09:53:46;;;;;;;64.97;27.73;;;205.40;1433.60;;;;;;5096190;28;20365;-61
2022/01/31 09:56:13;;;;;;;;;;;205.40;1433.60;;;;;;5096237;28;20472;-61
2022/01/31 09:58:40;;;;;;;53.78;22.40;;;205.40;1433.60;;;;;;5095999;28;19954;-62
2022/01/31 10:01:18;;;;;;;62.63;23.80;;;205.50;1433.60;;;;;;5095572;28;20027;-61
2022/01/31 10:03:48;;;;;;;88.07;30.08;;;205.60;1433.60;;;;;;5095321;28;20500;-63
2022/01/31 10:06:28;;;;;;;94.93;38.90;;;205.60;1433.60;;;;;;5095426;28;20051;-60
2022/01/31 10:09:06;;;;;;;85.72;36.40;;;205.70;1433.60;;;;;;5095971;28;20378;-64
2022/01/31 10:11:40;;;;;;;70.70;31.75;;;230.40;1433.60;;;;;;5095736;28;20124;-65
2022/01/31 10:17:29;;;;;;;65.85;25.63;;;230.50;1433.60;;;;;;5095795;28;20400;-64
2022/01/31 10:20:07;;;;;;;50.50;22.52;;;230.50;1433.60;;;;;;5095496;28;20511;-62
2022/01/31 10:22:38;;;;;;;48.00;22.90;;;230.60;1433.60;;;;;;5095664;28;20054;-64
2022/01/31 10:25:08;;;;;;;61.13;24.95;;;230.70;1433.60;;;;;;5095547;28;20027;-61
2022/01/31 10:27:36;;;;;;;60.58;23.05;;;230.70;1433.60;;;;;;5095033;28;20080;-61
2022/01/31 10:30:15;;;;;;;46.90;20.85;;;230.80;1433.60;;;;;;5095760;28;20355;-60
2022/01/31 10:32:46;;;;;;;43.50;18.98;;;230.90;1433.60;;;;;;5095083;28;20417;-61
2022/01/31 10:35:27;;;;;;;49.45;18.08;;;231.00;1408.00;;;;;;5095425;28;20035;-63
2022/01/31 10:38:07;;;;;;;64.70;22.45;;;231.00;1382.40;;;;;;5095021;28;20032;-63
2022/01/31 10:54:27;;;;;;;50.17;28.10;;;231.30;1356.80;;;;;;5095540;28;20024;-61
2022/01/31 10:57:03;;;;;;;48.30;19.92;;;231.30;1356.80;;;;;;5094788;28;20041;-61
2022/01/31 10:59:42;;;;;;;40.00;15.52;;;256.00;1331.20;;;;;;5094883;28;20465;-61
2022/01/31 11:02:15;;;;;;;38.05;14.85;;;256.10;1305.60;;;;;;5094792;28;20047;-62
2022/01/31 11:04:42;;;;;;;31.27;13.20;;;256.20;1280.00;;;;;;5094444;28;20520;-60
2022/01/31 11:07:13;;;;;;;51.30;18.48;;;256.20;1254.40;;;;;;5094749;28;20419;-61
2022/01/31 11:09:40;;;;;;;121.30;48.03;;;256.40;1305.60;;;;;;5094510;28;20106;-60
2022/01/31 11:12:08;;;;;;;220.95;98.75;;;256.50;1254.40;;;;;;5094755;28;20047;-61
2022/01/31 11:14:36;;;;;;;278.85;121.13;;;256.50;1203.20;;;;;;5093610;28;20497;-61
2022/01/31 11:17:10;;;;;;;217.70;95.30;;;256.50;1203.20;;;;;;5094169;28;20035;-61
2022/01/31 11:19:36;;;;;;;144.43;65.55;;;256.60;1152.00;;;;;;5094541;28;20036;-63
2022/01/31 11:22:07;;;;;;;142.32;59.78;;;256.60;1152.00;;;;;;5094594;28;20112;-61
2022/01/31 11:24:42;;;;;;;107.65;47.05;;;256.60;1152.00;;;;;;5094215;28;20020;-61
2022/01/31 11:27:15;;;;;;;98.95;37.30;;;256.60;1177.60;;;;;;5099225;28;20152;-61
2022/01/31 11:29:44;;;;;;;63.97;28.05;;;256.60;1177.60;;;;;;5105041;28;20042;-64
2022/01/31 11:32:11;;;;;;;66.47;31.10;;;256.60;1152.00;;;;;;5103363;28;20044;-61
2022/01/31 11:34:39;;;;;;;61.03;22.13;;;256.60;1126.40;;;;;;5103299;28;20092;-61
2022/01/31 11:37:08;;;;;;;68.80;27.77;;;256.60;1126.40;;;;;;5100212;28;20024;-63
2022/01/31 11:39:36;;;;;;;51.05;16.23;;;256.60;1152.00;;;;;;5103200;28;20030;-61
2022/01/31 11:42:03;;;;;;;35.58;14.32;;;256.50;1126.40;;;;;;5104635;28;20166;-64
2022/01/31 11:44:35;;;;;;;34.30;12.75;;;256.50;1126.40;;;;;;5103252;28;20032;-61
2022/01/31 11:47:05;;;;;;;34.22;10.27;;;256.50;1126.40;;;;;;5102339;28;20020;-59
2022/01/31 11:49:50;;;;;;;35.60;11.02;;;256.30;1100.80;;;;;;5103762;28;20049;-59
2022/01/31 11:52:18;;;;;;;43.42;12.70;;;256.40;1100.80;;;;;;5102936;28;20035;-58
2022/01/31 11:54:55;;;;;;;49.33;14.20;;;256.30;1126.40;;;;;;5099695;28;20444;-59
2022/01/31 11:57:24;;;;;;;55.08;16.40;;;256.30;1152.00;;;;;;5102238;28;20036;-60
2022/01/31 11:59:56;;;;;;;48.28;14.45;;;256.30;1126.40;;;;;;5106696;28;20020;-59
2022/01/31 12:02:25;;;;;;;39.42;11.82;;;256.30;1126.40;;;;;;5113618;28;20059;-64
2022/01/31 12:04:52;;;;;;;35.30;10.60;;;256.30;1126.40;;;;;;5099629;28;20032;-61
2022/01/31 12:07:40;;;;;;;29.27;8.80;;;256.30;1126.40;;;;;;5093686;28;20091;-60
2022/01/31 12:10:10;;;;;;;20.75;7.22;;;256.30;1100.80;;;;;;5092540;28;20042;-61
2022/01/31 12:24:09;;;;;;;27.77;6.22;;;256.30;1100.80;;;;;;5101521;28;20031;-60
2022/01/31 12:26:46;;;;;;;25.50;6.35;;;256.30;1100.80;;;;;;5109689;28;20019;-60
2022/01/31 12:29:15;;;;;;;32.22;11.43;;;256.30;1100.80;;;;;;5118236;28;20031;-69
2022/01/31 12:32:05;;;;;;;29.55;10.68;;;256.60;1280.00;;;;;;5118150;28;20103;-63
2022/01/31 12:34:38;;;;;;;34.97;10.15;;;256.60;1177.60;;;;;;5104294;28;20036;-61
2022/01/31 12:37:19;;;;;;;35.40;10.85;;;256.60;1126.40;;;;;;5117949;28;20024;-63
2022/01/31 12:40:05;;;;;;;33.72;12.02;;;256.50;1126.40;;;;;;5118059;28;20074;-60
2022/01/31 12:45:16;;;;;;;24.35;7.45;;;256.40;1126.40;;;;;;5117998;28;20024;-60
2022/01/31 12:48:15;;;;;;;27.73;7.72;;;256.40;1126.40;;;;;;5117662;28;20380;-60
2022/01/31 12:50:46;;;;;;;35.38;9.18;;;256.40;1126.40;;;;;;5117606;28;20019;-63
2022/01/31 12:53:26;;;;;;;45.42;9.70;;;256.30;1126.40;;;;;;5117897;28;20032;-60
2022/01/31 12:55:58;;;;;;;33.65;10.60;;;256.20;1126.40;;;;;;5117782;28;20411;-60